Time;durP1;ratioP1;P1;durP2;ratioP2;P2;SDS_P1;SDS_P2;PMS_P1;PMS_P2;Temp;Humidity;BMP_temperature;BMP_pressure;BME280_temperature;BME280_humidity;BME280_pressure;Samples;Min_cycle;Max_cycle;Signal;HPM_P1;HPM_P2
2021/06/07 00:01:54;;;;;;;1.52;1.42;;;19.70;99.90;;;;;;5092343;28;20176;-76
2021/06/07 00:04:20;;;;;;;1.38;1.27;;;19.70;99.90;;;;;;5092136;28;20020;-75
2021/06/07 00:06:47;;;;;;;3.65;2.08;;;19.70;99.90;;;;;;5091688;28;20089;-76
2021/06/07 00:09:15;;;;;;;1.52;1.42;;;19.70;99.90;;;;;;5092685;28;20077;-77
2021/06/07 00:11:47;;;;;;;1.30;1.20;;;19.70;99.90;;;;;;5091885;28;20433;-75
2021/06/07 00:14:14;;;;;;;4.35;2.47;;;19.70;99.90;;;;;;5092120;28;20081;-76
2021/06/07 00:16:40;;;;;;;1.20;1.10;;;19.70;99.90;;;;;;5091787;28;20016;-75
2021/06/07 00:19:09;;;;;;;1.00;1.00;;;19.70;99.90;;;;;;5091653;28;20058;-76
2021/06/07 00:21:36;;;;;;;1.80;1.70;;;19.60;99.90;;;;;;5091786;28;20074;-75
2021/06/07 00:24:03;;;;;;;1.23;1.13;;;19.60;99.90;;;;;;5091812;28;20048;-75
2021/06/07 00:26:29;;;;;;;1.00;1.00;;;19.50;99.90;;;;;;5091111;28;20024;-76
2021/06/07 00:28:56;;;;;;;1.40;1.30;;;19.50;99.90;;;;;;5092108;28;20028;-76
2021/06/07 00:31:22;;;;;;;1.15;1.10;;;19.50;99.90;;;;;;5091432;28;20074;-76
2021/06/07 00:33:48;;;;;;;1.00;1.00;;;19.60;99.90;;;;;;5091559;28;20036;-77
2021/06/07 00:36:19;;;;;;;1.38;1.27;;;19.60;99.90;;;;;;5090624;28;20032;-77
2021/06/07 00:38:45;;;;;;;1.35;1.25;;;19.50;99.90;;;;;;5091301;28;20032;-76
2021/06/07 00:41:11;;;;;;;1.10;1.10;;;19.50;99.90;;;;;;5091210;28;20031;-77
2021/06/07 00:43:37;;;;;;;1.67;1.42;;;19.50;99.90;;;;;;5091661;28;20039;-77
2021/06/07 00:46:04;;;;;;;1.23;1.13;;;19.40;99.90;;;;;;5090965;28;20020;-77
2021/06/07 00:48:31;;;;;;;1.67;1.58;;;19.40;99.90;;;;;;5091644;28;20028;-76
2021/06/07 00:51:07;;;;;;;2.80;2.08;;;19.40;99.90;;;;;;5091092;28;20078;-76
2021/06/07 00:53:33;;;;;;;1.30;1.20;;;19.40;99.90;;;;;;5091570;28;20436;-77
2021/06/07 00:56:03;;;;;;;1.58;1.48;;;19.30;99.90;;;;;;5091168;28;20020;-76
2021/06/07 00:58:37;;;;;;;1.23;1.13;;;19.30;99.90;;;;;;5091057;28;20037;-82
2021/06/07 01:01:06;;;;;;;1.45;1.35;;;19.30;99.90;;;;;;5091248;28;20016;-75
2021/06/07 01:03:33;;;;;;;1.73;1.63;;;19.30;99.90;;;;;;5090965;28;20098;-79
2021/06/07 01:05:59;;;;;;;1.70;1.60;;;19.40;99.90;;;;;;5091082;28;20020;-77
2021/06/07 01:08:26;;;;;;;4.43;3.47;;;19.40;99.90;;;;;;5091410;28;20036;-76
2021/06/07 01:10:52;;;;;;;1.10;1.10;;;19.50;99.90;;;;;;5090791;28;20023;-75
2021/06/07 01:13:19;;;;;;;1.38;1.27;;;19.50;99.90;;;;;;5090986;28;20032;-77
2021/06/07 01:15:47;;;;;;;2.45;1.67;;;19.50;99.90;;;;;;5091209;28;20085;-78
2021/06/07 01:18:19;;;;;;;1.30;1.20;;;19.50;99.90;;;;;;5072551;28;20056;-77
2021/06/07 01:20:47;;;;;;;1.00;1.00;;;19.50;99.90;;;;;;5090735;28;20020;-76
2021/06/07 01:23:13;;;;;;;2.28;2.15;;;19.50;99.90;;;;;;5073091;28;20040;-78
2021/06/07 01:25:40;;;;;;;1.10;1.10;;;19.50;99.90;;;;;;5090781;28;20111;-80
2021/06/07 01:28:08;;;;;;;1.30;1.20;;;19.50;99.90;;;;;;5091160;28;20166;-76
2021/06/07 01:30:39;;;;;;;1.30;1.20;;;19.50;99.90;;;;;;5090741;28;20020;-75
2021/06/07 01:33:07;;;;;;;4.00;2.20;;;19.50;99.90;;;;;;5072800;28;20080;-76
2021/06/07 01:35:34;;;;;;;1.30;1.20;;;19.40;99.90;;;;;;5091254;28;20073;-77
2021/06/07 01:38:00;;;;;;;1.50;1.40;;;19.40;99.90;;;;;;5090312;28;20498;-77
2021/06/07 01:40:30;;;;;;;1.52;1.42;;;19.50;99.90;;;;;;5090985;28;20020;-76
2021/06/07 01:42:56;;;;;;;1.35;1.25;;;19.40;99.90;;;;;;5091055;28;20020;-79
2021/06/07 01:45:24;;;;;;;1.38;1.27;;;19.50;99.90;;;;;;5090656;28;20055;-78
2021/06/07 01:47:51;;;;;;;2.00;1.90;;;19.50;99.90;;;;;;5091914;28;20028;-78
2021/06/07 01:50:17;;;;;;;1.17;1.15;;;19.40;99.90;;;;;;5094783;28;20039;-76
2021/06/07 01:52:46;;;;;;;1.35;1.25;;;19.40;99.90;;;;;;5094601;28;20047;-77
2021/06/07 01:55:18;;;;;;;1.85;1.70;;;19.50;99.90;;;;;;5094439;28;20031;-79
2021/06/07 01:57:45;;;;;;;1.92;1.73;;;19.40;99.90;;;;;;5094485;28;20024;-79
2021/06/07 02:00:16;;;;;;;1.10;1.10;;;19.40;99.90;;;;;;5094540;28;20028;-78
2021/06/07 02:02:46;;;;;;;1.33;1.23;;;19.40;99.90;;;;;;5094769;28;20024;-78
2021/06/07 02:05:18;;;;;;;1.20;1.15;;;19.40;99.90;;;;;;5094904;28;20020;-75
2021/06/07 02:07:47;;;;;;;1.27;1.17;;;19.00;99.90;;;;;;5094575;28;20028;-76
2021/06/07 02:10:14;;;;;;;1.10;1.10;;;19.00;99.90;;;;;;5076363;28;20024;-76
2021/06/07 02:12:41;;;;;;;1.15;1.13;;;19.20;99.90;;;;;;5094228;28;20073;-78
2021/06/07 02:15:09;;;;;;;1.25;1.15;;;19.20;99.90;;;;;;5094520;28;20111;-76
2021/06/07 02:17:35;;;;;;;1.00;1.00;;;19.20;99.90;;;;;;5094496;28;20031;-76
2021/06/07 02:20:02;;;;;;;1.52;1.42;;;19.20;99.90;;;;;;5094221;28;20024;-74
2021/06/07 02:22:28;;;;;;;1.50;1.40;;;19.00;99.90;;;;;;5094109;28;20028;-75
2021/06/07 02:24:53;;;;;;;1.10;1.10;;;19.10;99.90;;;;;;5094191;28;20399;-78
2021/06/07 02:27:19;;;;;;;1.27;1.17;;;19.20;99.90;;;;;;5094074;28;20073;-77
2021/06/07 02:29:45;;;;;;;1.63;1.52;;;19.20;99.90;;;;;;5094137;28;20043;-75
2021/06/07 02:32:11;;;;;;;1.45;1.35;;;19.20;99.90;;;;;;5093239;28;20039;-78
2021/06/07 02:34:37;;;;;;;1.75;1.65;;;19.20;99.90;;;;;;5094434;28;20019;-76
2021/06/07 02:37:03;;;;;;;1.75;1.65;;;19.20;99.90;;;;;;5093428;28;20024;-75
2021/06/07 02:39:29;;;;;;;1.10;1.10;;;19.20;99.90;;;;;;5094485;28;20027;-76
2021/06/07 02:41:55;;;;;;;1.50;1.40;;;19.20;99.90;;;;;;5093267;28;20020;-75
2021/06/07 02:44:22;;;;;;;1.75;1.65;;;19.20;99.90;;;;;;5093965;28;20024;-74
2021/06/07 02:46:48;;;;;;;1.20;1.10;;;19.20;99.90;;;;;;5093494;28;20138;-75
2021/06/07 02:49:14;;;;;;;1.10;1.10;;;19.10;99.90;;;;;;5093721;28;20046;-74
2021/06/07 02:51:40;;;;;;;1.65;1.55;;;19.10;99.90;;;;;;5093283;28;20066;-74
2021/06/07 02:54:07;;;;;;;1.35;1.25;;;19.10;99.90;;;;;;5094238;28;20522;-75
2021/06/07 02:56:33;;;;;;;1.20;1.10;;;19.10;99.90;;;;;;5093619;28;20024;-75
2021/06/07 02:58:59;;;;;;;1.63;1.52;;;19.20;99.90;;;;;;5092673;28;20028;-75
2021/06/07 03:01:25;;;;;;;1.52;1.42;;;19.10;99.90;;;;;;5093007;28;20525;-74
2021/06/07 03:03:51;;;;;;;1.10;1.10;;;19.00;99.90;;;;;;5093942;28;20491;-75
2021/06/07 03:06:17;;;;;;;1.80;1.70;;;19.00;99.90;;;;;;5093046;28;20236;-75
2021/06/07 03:08:42;;;;;;;1.80;1.70;;;19.00;99.90;;;;;;5093576;28;20043;-76
2021/06/07 03:11:11;;;;;;;1.13;1.02;;;19.10;99.90;;;;;;5093095;28;20107;-75
2021/06/07 03:13:38;;;;;;;2.92;2.67;;;19.10;99.90;;;;;;5093629;28;20165;-79
2021/06/07 03:16:05;;;;;;;1.00;1.00;;;19.00;99.90;;;;;;5092835;28;20077;-77
2021/06/07 03:18:31;;;;;;;1.23;1.13;;;19.00;99.90;;;;;;5093603;28;20056;-78
2021/06/07 03:20:57;;;;;;;1.20;1.10;;;19.00;99.90;;;;;;5093274;28;20096;-78
2021/06/07 03:23:26;;;;;;;2.30;1.90;;;19.00;99.90;;;;;;5093075;28;20070;-77
2021/06/07 03:25:53;;;;;;;1.00;1.00;;;19.00;99.90;;;;;;5092955;28;20032;-75
2021/06/07 03:28:20;;;;;;;1.42;1.33;;;19.10;99.90;;;;;;5092880;28;20021;-77
2021/06/07 03:30:48;;;;;;;1.48;1.38;;;19.10;99.90;;;;;;5092883;28;20038;-79
2021/06/07 03:33:14;;;;;;;1.13;1.10;;;19.10;99.90;;;;;;5092694;28;20032;-79
2021/06/07 03:35:43;;;;;;;1.40;1.30;;;19.00;99.90;;;;;;5092830;28;20085;-78
2021/06/07 03:38:11;;;;;;;1.52;1.42;;;18.90;99.90;;;;;;5092264;28;20039;-77
2021/06/07 03:40:40;;;;;;;1.30;1.20;;;19.00;99.90;;;;;;5092944;28;20467;-77
2021/06/07 03:43:07;;;;;;;1.63;1.50;;;19.10;99.90;;;;;;5092966;28;20020;-77
2021/06/07 03:45:34;;;;;;;1.25;1.15;;;19.10;99.90;;;;;;5092296;28;20816;-76
2021/06/07 03:48:00;;;;;;;1.75;1.65;;;19.20;99.90;;;;;;5092290;28;20021;-81
2021/06/07 03:50:27;;;;;;;1.48;1.38;;;19.10;99.90;;;;;;5092706;28;20420;-79
2021/06/07 03:52:54;;;;;;;1.10;1.10;;;19.10;99.90;;;;;;5092165;28;20044;-79
2021/06/07 03:55:22;;;;;;;1.80;1.70;;;19.00;99.90;;;;;;5092456;28;20518;-77
2021/06/07 03:57:48;;;;;;;3.40;1.90;;;19.00;99.90;;;;;;5092392;28;20050;-80
2021/06/07 04:00:17;;;;;;;1.20;1.10;;;18.90;99.90;;;;;;5092049;28;20398;-77
2021/06/07 04:02:43;;;;;;;1.80;1.70;;;18.80;99.90;;;;;;5091912;28;20039;-77
2021/06/07 04:05:10;;;;;;;1.75;1.65;;;18.80;99.90;;;;;;5092402;28;20062;-80
2021/06/07 04:07:36;;;;;;;1.30;1.20;;;18.80;99.90;;;;;;5091896;28;20483;-79
2021/06/07 04:10:08;;;;;;;1.55;1.45;;;18.90;99.90;;;;;;5092224;28;20099;-77
2021/06/07 04:12:34;;;;;;;1.63;1.52;;;19.10;99.90;;;;;;5091720;28;20028;-78
2021/06/07 04:15:01;;;;;;;1.15;1.10;;;19.20;99.90;;;;;;5091660;28;20102;-75
2021/06/07 04:17:26;;;;;;;1.30;1.20;;;19.20;99.90;;;;;;5074052;28;20028;-79
2021/06/07 04:19:52;;;;;;;1.10;1.10;;;19.20;99.90;;;;;;5092085;28;20035;-77
2021/06/07 04:22:18;;;;;;;1.30;1.20;;;19.20;99.90;;;;;;5091392;28;20066;-77
2021/06/07 04:24:45;;;;;;;1.33;1.23;;;19.30;99.90;;;;;;5091952;28;20044;-76
2021/06/07 04:27:13;;;;;;;1.63;1.52;;;19.20;99.90;;;;;;5091379;28;20024;-75
2021/06/07 04:29:40;;;;;;;2.03;1.90;;;19.20;99.90;;;;;;5091661;28;20031;-80
2021/06/07 04:32:07;;;;;;;1.85;1.75;;;19.20;99.90;;;;;;5091285;28;20031;-79
2021/06/07 04:34:33;;;;;;;1.17;1.10;;;19.30;99.90;;;;;;5091353;28;20111;-76
2021/06/07 04:36:59;;;;;;;1.25;1.17;;;19.30;99.90;;;;;;5091007;28;20095;-79
2021/06/07 04:39:24;;;;;;;1.30;1.20;;;19.40;99.90;;;;;;5091958;28;20032;-78
2021/06/07 04:41:50;;;;;;;1.60;1.50;;;19.40;99.90;;;;;;5091260;28;20020;-77
2021/06/07 04:44:16;;;;;;;1.35;1.25;;;19.40;99.90;;;;;;5091722;28;20024;-78
2021/06/07 04:46:42;;;;;;;1.70;1.60;;;19.40;99.90;;;;;;5073268;28;20036;-79
2021/06/07 04:49:08;;;;;;;1.50;1.40;;;19.50;99.90;;;;;;5091264;28;20077;-76
2021/06/07 04:51:33;;;;;;;1.00;1.00;;;19.50;99.90;;;;;;5091336;28;20063;-76
2021/06/07 04:53:59;;;;;;;1.67;1.58;;;19.60;99.90;;;;;;5091705;28;20110;-78
2021/06/07 04:56:26;;;;;;;2.33;2.13;;;19.80;99.90;;;;;;5091244;28;20028;-76
2021/06/07 04:58:52;;;;;;;2.67;2.03;;;19.80;99.90;;;;;;5091404;28;20039;-76
2021/06/07 05:01:17;;;;;;;4.28;2.80;;;19.80;99.90;;;;;;5090952;28;20036;-75
2021/06/07 05:03:43;;;;;;;3.67;2.17;;;19.90;99.90;;;;;;5091578;28;20020;-79
2021/06/07 05:06:09;;;;;;;1.38;1.27;;;20.00;99.90;;;;;;5091180;28;20028;-77
2021/06/07 05:08:35;;;;;;;2.45;2.25;;;20.10;99.90;;;;;;5093418;28;20031;-77
2021/06/07 05:11:01;;;;;;;1.60;1.50;;;20.10;99.90;;;;;;5101701;28;20069;-75
2021/06/07 05:13:28;;;;;;;7.60;3.65;;;20.00;99.90;;;;;;5111566;28;20651;-78
2021/06/07 05:15:54;;;;;;;3.13;2.08;;;20.00;99.90;;;;;;5111156;28;20016;-76
2021/06/07 05:18:21;;;;;;;1.70;1.60;;;19.90;99.90;;;;;;5111141;28;20028;-78
2021/06/07 05:20:46;;;;;;;1.00;1.00;;;19.80;99.90;;;;;;5111694;28;20027;-75
2021/06/07 05:23:13;;;;;;;2.38;2.17;;;19.80;99.90;;;;;;5103197;28;20372;-78
2021/06/07 05:25:40;;;;;;;2.45;2.05;;;19.80;99.90;;;;;;5094871;28;20080;-76
2021/06/07 05:28:08;;;;;;;1.80;1.70;;;19.80;99.90;;;;;;5095000;28;20402;-76
2021/06/07 05:30:36;;;;;;;1.40;1.30;;;19.80;99.90;;;;;;5095311;28;20099;-76
2021/06/07 05:33:02;;;;;;;1.95;1.55;;;19.70;99.90;;;;;;5094846;28;20317;-80
2021/06/07 05:35:31;;;;;;;2.25;2.13;;;19.70;99.90;;;;;;5077156;28;20035;-79
2021/06/07 05:37:58;;;;;;;1.20;1.10;;;19.90;99.90;;;;;;5095253;28;20039;-79
2021/06/07 05:40:25;;;;;;;1.23;1.15;;;20.00;99.90;;;;;;5075280;28;20024;-81
2021/06/07 05:42:52;;;;;;;1.58;1.48;;;20.10;99.90;;;;;;5074348;28;20266;-79
2021/06/07 05:45:19;;;;;;;2.30;2.00;;;20.10;99.90;;;;;;5074214;28;20141;-79
2021/06/07 05:47:45;;;;;;;2.75;2.53;;;20.20;99.90;;;;;;5074199;28;20027;-83
2021/06/07 05:50:15;;;;;;;1.48;1.38;;;20.20;99.90;;;;;;5074096;28;20103;-81
2021/06/07 05:52:47;;;;;;;1.30;1.20;;;20.20;99.90;;;;;;5074359;28;20033;-80
2021/06/07 05:55:15;;;;;;;1.02;1.02;;;20.20;99.90;;;;;;5073946;28;20025;-79
2021/06/07 05:57:41;;;;;;;0.90;0.90;;;20.20;99.90;;;;;;5073798;28;20017;-80
2021/06/07 06:00:08;;;;;;;1.60;1.35;;;20.30;99.90;;;;;;5056133;28;20825;-78
2021/06/07 06:02:33;;;;;;;0.90;0.90;;;20.30;99.90;;;;;;5079804;28;20023;-77
2021/06/07 06:04:59;;;;;;;1.30;1.20;;;20.50;99.90;;;;;;5094173;28;20020;-78
2021/06/07 06:07:25;;;;;;;1.45;1.35;;;20.50;99.90;;;;;;5077038;28;20051;-78
2021/06/07 06:09:51;;;;;;;3.72;2.17;;;20.40;99.90;;;;;;5100809;28;20409;-78
2021/06/07 06:12:17;;;;;;;1.52;1.42;;;20.40;99.90;;;;;;5105447;28;20043;-79
2021/06/07 06:14:42;;;;;;;2.78;2.10;;;20.40;99.90;;;;;;5100435;28;20394;-77
2021/06/07 06:17:08;;;;;;;1.00;1.00;;;20.50;99.90;;;;;;5102873;28;20107;-79
2021/06/07 06:19:34;;;;;;;1.20;1.15;;;20.60;99.90;;;;;;5097568;28;20371;-79
2021/06/07 06:22:03;;;;;;;1.60;1.50;;;20.60;99.90;;;;;;5102564;28;20051;-78
2021/06/07 06:24:34;;;;;;;1.42;1.33;;;20.50;99.90;;;;;;5084966;28;20042;-79
2021/06/07 06:27:00;;;;;;;1.30;1.20;;;20.50;99.90;;;;;;5100909;28;20023;-78
2021/06/07 06:29:26;;;;;;;1.38;1.27;;;20.50;99.90;;;;;;5099780;28;20032;-79
2021/06/07 06:31:52;;;;;;;0.82;0.82;;;20.60;99.90;;;;;;5101746;28;20020;-79
2021/06/07 06:34:17;;;;;;;1.35;1.25;;;20.60;99.90;;;;;;5102085;28;20032;-79
2021/06/07 06:36:43;;;;;;;2.45;2.20;;;20.60;99.90;;;;;;5110939;28;20035;-77
2021/06/07 06:39:09;;;;;;;1.00;1.00;;;20.60;99.90;;;;;;5113981;28;20043;-79
2021/06/07 06:41:35;;;;;;;1.63;1.52;;;20.50;99.90;;;;;;5102344;28;20371;-78
2021/06/07 06:44:01;;;;;;;0.82;0.82;;;20.50;99.90;;;;;;5092524;28;20039;-80
2021/06/07 06:46:27;;;;;;;1.65;1.55;;;20.50;99.90;;;;;;5072449;28;20063;-80
2021/06/07 06:48:53;;;;;;;1.90;1.65;;;20.50;99.90;;;;;;5073293;28;20025;-79
2021/06/07 06:51:19;;;;;;;1.58;1.48;;;20.50;99.90;;;;;;5073111;28;20016;-79
2021/06/07 06:53:45;;;;;;;1.30;1.20;;;20.60;99.90;;;;;;5072898;28;20041;-79
2021/06/07 06:56:11;;;;;;;4.15;2.78;;;20.70;99.90;;;;;;5092253;28;20400;-79
2021/06/07 06:58:37;;;;;;;0.90;0.90;;;20.80;99.90;;;;;;5093264;28;20031;-79
2021/06/07 07:01:03;;;;;;;1.35;1.25;;;20.80;99.90;;;;;;5076007;28;20048;-78
2021/06/07 07:03:29;;;;;;;1.50;1.40;;;20.80;99.90;;;;;;5072997;28;20024;-80
2021/06/07 07:05:55;;;;;;;1.00;1.00;;;20.90;99.90;;;;;;5054660;28;20043;-79
2021/06/07 07:08:21;;;;;;;1.33;1.23;;;20.80;99.90;;;;;;5095177;28;20024;-80
2021/06/07 07:10:48;;;;;;;1.50;1.40;;;20.70;99.90;;;;;;5113301;28;20478;-79
2021/06/07 07:13:14;;;;;;;2.05;1.80;;;20.90;99.90;;;;;;5113177;28;20032;-77
2021/06/07 07:15:41;;;;;;;0.80;0.80;;;20.90;99.90;;;;;;5085495;28;20020;-79
2021/06/07 07:18:08;;;;;;;0.80;0.80;;;21.10;99.90;;;;;;5072672;28;20040;-80
2021/06/07 07:20:34;;;;;;;2.15;1.83;;;21.40;99.90;;;;;;5072580;28;20028;-79
2021/06/07 07:23:01;;;;;;;1.60;1.50;;;21.70;99.90;;;;;;5094195;28;20030;-78
2021/06/07 07:25:26;;;;;;;1.35;1.25;;;21.80;99.90;;;;;;5101862;28;20059;-78
2021/06/07 07:27:52;;;;;;;1.30;1.20;;;21.70;99.90;;;;;;5100572;28;20024;-78
2021/06/07 07:30:20;;;;;;;1.52;1.42;;;21.60;99.90;;;;;;5105067;28;20390;-79
2021/06/07 07:32:48;;;;;;;1.33;1.23;;;21.70;99.90;;;;;;5112316;28;20055;-79
2021/06/07 07:35:14;;;;;;;1.52;1.42;;;21.50;99.90;;;;;;5113005;28;20046;-77
2021/06/07 07:37:41;;;;;;;4.50;2.58;;;21.50;99.90;;;;;;5113090;28;20103;-77
2021/06/07 07:40:09;;;;;;;1.40;1.30;;;21.50;99.90;;;;;;5112479;28;20068;-80
2021/06/07 07:42:36;;;;;;;0.80;0.80;;;21.50;99.90;;;;;;5112376;28;20382;-79
2021/06/07 07:45:04;;;;;;;2.13;1.92;;;21.40;99.90;;;;;;5095035;28;20022;-80
2021/06/07 07:47:31;;;;;;;1.08;1.05;;;21.50;99.90;;;;;;5054084;28;20032;-79
2021/06/07 07:49:57;;;;;;;1.23;1.13;;;21.50;99.90;;;;;;5071790;28;20098;-81
2021/06/07 07:52:25;;;;;;;1.40;1.30;;;21.60;99.90;;;;;;5071959;28;20024;-82
2021/06/07 07:54:54;;;;;;;1.35;1.25;;;21.70;99.90;;;;;;5068383;28;20029;-81
2021/06/07 07:57:22;;;;;;;0.85;0.85;;;21.70;99.90;;;;;;5085219;28;20024;-79
2021/06/07 07:59:49;;;;;;;1.40;1.30;;;21.70;99.90;;;;;;5108288;28;20313;-79
2021/06/07 08:02:14;;;;;;;2.45;2.25;;;21.70;99.90;;;;;;5096343;28;20061;-79
2021/06/07 08:04:41;;;;;;;1.17;1.10;;;21.70;99.90;;;;;;5092163;28;20024;-79
2021/06/07 08:07:07;;;;;;;5.03;2.15;;;21.90;99.90;;;;;;5091438;28;20158;-79
2021/06/07 08:09:34;;;;;;;1.40;1.30;;;21.60;99.90;;;;;;5091659;28;20028;-78
2021/06/07 08:12:01;;;;;;;1.88;1.42;;;21.50;99.90;;;;;;5071345;28;20100;-79
2021/06/07 08:14:27;;;;;;;0.93;0.93;;;21.70;99.90;;;;;;5073066;28;20660;-80
2021/06/07 08:16:55;;;;;;;1.08;1.02;;;21.60;99.90;;;;;;5091183;28;20019;-79
2021/06/07 08:19:22;;;;;;;0.93;0.93;;;21.50;99.90;;;;;;5091861;28;20024;-78
2021/06/07 08:21:48;;;;;;;1.27;1.17;;;21.50;99.90;;;;;;5091335;28;20032;-80
2021/06/07 08:24:13;;;;;;;0.90;0.90;;;21.40;99.90;;;;;;5091660;28;20071;-78
2021/06/07 08:26:39;;;;;;;0.80;0.80;;;21.40;99.90;;;;;;5074412;28;20106;-80
2021/06/07 08:29:07;;;;;;;0.82;0.82;;;21.40;99.90;;;;;;5071745;28;20029;-81
2021/06/07 08:31:34;;;;;;;1.45;1.35;;;21.40;99.90;;;;;;5070918;28;20374;-80
2021/06/07 08:33:59;;;;;;;1.00;1.00;;;21.60;99.90;;;;;;5071094;28;20044;-80
2021/06/07 08:36:26;;;;;;;1.08;0.98;;;21.40;99.90;;;;;;5071155;28;20024;-80
2021/06/07 08:38:51;;;;;;;0.80;0.80;;;21.40;99.90;;;;;;5071188;28;20039;-78
2021/06/07 08:41:17;;;;;;;1.75;1.63;;;21.50;99.90;;;;;;5070030;28;20025;-78
2021/06/07 08:43:43;;;;;;;1.15;1.10;;;21.70;99.90;;;;;;5071369;28;20490;-79
2021/06/07 08:46:13;;;;;;;1.08;1.05;;;21.60;99.90;;;;;;5070934;28;20486;-79
2021/06/07 08:48:39;;;;;;;2.53;2.33;;;21.50;99.90;;;;;;5052591;28;20024;-79
2021/06/07 08:51:06;;;;;;;1.13;1.08;;;21.50;99.90;;;;;;5082903;28;20074;-79
2021/06/07 08:53:32;;;;;;;0.80;0.80;;;21.90;99.90;;;;;;5102385;28;20078;-82
2021/06/07 08:55:58;;;;;;;1.63;1.35;;;22.40;99.90;;;;;;5089693;28;20025;-79
2021/06/07 08:58:25;;;;;;;0.90;0.90;;;22.50;99.90;;;;;;5070010;28;20052;-80
2021/06/07 09:00:52;;;;;;;1.15;1.05;;;22.70;99.90;;;;;;5069926;28;20073;-79
2021/06/07 09:03:20;;;;;;;1.13;1.05;;;22.80;99.90;;;;;;5070220;28;20039;-79
2021/06/07 09:05:53;;;;;;;1.15;1.05;;;22.80;99.90;;;;;;5096354;28;20043;-80
2021/06/07 09:08:19;;;;;;;0.85;0.85;;;22.80;99.90;;;;;;5100672;28;20421;-80
2021/06/07 09:10:50;;;;;;;0.80;0.80;;;22.90;99.90;;;;;;5077149;28;20055;-80
2021/06/07 09:13:19;;;;;;;0.80;0.80;;;23.00;99.90;;;;;;5090808;28;20056;-81
2021/06/07 09:15:50;;;;;;;1.58;1.48;;;23.10;99.90;;;;;;5097828;28;20071;-77
2021/06/07 09:18:44;;;;;;;1.00;0.95;;;23.00;99.90;;;;;;5096389;28;20024;-81
2021/06/07 09:21:18;;;;;;;0.70;0.70;;;22.70;99.90;;;;;;5099692;28;20110;-78
2021/06/07 09:23:55;;;;;;;2.10;1.92;;;22.50;99.90;;;;;;5098363;28;20439;-80
2021/06/07 09:26:28;;;;;;;2.35;2.00;;;22.50;99.90;;;;;;5097436;28;20036;-79
2021/06/07 09:28:57;;;;;;;1.90;1.75;;;22.70;99.90;;;;;;5080462;28;20379;-78
2021/06/07 09:31:37;;;;;;;0.85;0.85;;;22.50;99.90;;;;;;5098887;28;20085;-79
2021/06/07 09:34:07;;;;;;;2.33;1.65;;;22.30;99.90;;;;;;5110371;28;20042;-81
2021/06/07 09:36:36;;;;;;;2.65;1.58;;;22.30;99.90;;;;;;5111252;28;20099;-80
2021/06/07 09:39:27;;;;;;;1.02;1.02;;;22.30;99.90;;;;;;5092727;28;20480;-78
2021/06/07 09:41:58;;;;;;;0.90;0.90;;;22.40;99.90;;;;;;5082987;28;20107;-82
2021/06/07 09:44:30;;;;;;;2.05;1.50;;;22.50;99.90;;;;;;5098790;28;20034;-81
2021/06/07 09:47:14;;;;;;;1.05;1.05;;;22.50;99.90;;;;;;5102735;28;20043;-79
2021/06/07 09:49:46;;;;;;;2.70;2.05;;;22.70;99.90;;;;;;5092660;28;20467;-86
2021/06/07 09:52:17;;;;;;;1.02;1.02;;;22.80;99.90;;;;;;5110532;28;20036;-81
2021/06/07 09:54:43;;;;;;;1.67;1.58;;;22.90;99.90;;;;;;5110771;28;20036;-78
2021/06/07 09:57:09;;;;;;;1.27;1.20;;;22.90;99.90;;;;;;5109799;28;20379;-77
2021/06/07 09:59:38;;;;;;;1.77;1.25;;;22.60;99.90;;;;;;5111135;28;20047;-79
2021/06/07 10:02:16;;;;;;;3.60;1.52;;;22.50;99.90;;;;;;5110345;28;20405;-79
2021/06/07 10:04:55;;;;;;;0.88;0.88;;;22.60;99.90;;;;;;5110605;28;20022;-79
2021/06/07 10:07:22;;;;;;;0.60;0.60;;;22.40;99.90;;;;;;5110418;28;20032;-78
2021/06/07 10:10:18;;;;;;;1.08;1.02;;;22.30;99.90;;;;;;5114035;28;20027;-79
2021/06/07 10:12:46;;;;;;;1.67;1.17;;;22.30;99.90;;;;;;5114062;28;20489;-78
2021/06/07 10:15:31;;;;;;;4.30;1.60;;;22.30;99.90;;;;;;5114513;28;20499;-79
2021/06/07 10:17:57;;;;;;;2.80;1.67;;;22.10;99.90;;;;;;5114235;28;20023;-78
2021/06/07 10:22:48;;;;;;;1.75;1.65;;;22.00;99.90;;;;;;5104427;28;20460;-77
2021/06/07 10:25:14;;;;;;;17.58;1.48;;;21.90;99.90;;;;;;5092624;28;20055;-78
2021/06/07 10:27:40;;;;;;;0.93;0.93;;;21.90;99.90;;;;;;5091040;28;20463;-78
2021/06/07 10:30:18;;;;;;;1.00;0.98;;;21.80;99.90;;;;;;5091544;28;20028;-78
2021/06/07 10:32:45;;;;;;;0.77;0.77;;;21.70;99.90;;;;;;5091365;28;20024;-78
2021/06/07 10:35:12;;;;;;;0.90;0.90;;;21.50;99.90;;;;;;5091338;28;20457;-78
2021/06/07 10:38:09;;;;;;;1.25;1.15;;;21.50;99.90;;;;;;5089626;28;20032;-78
2021/06/07 10:40:42;;;;;;;0.80;0.80;;;21.50;99.90;;;;;;5091146;28;20027;-77
2021/06/07 10:43:11;;;;;;;0.75;0.75;;;21.60;99.90;;;;;;5091697;28;20024;-78
2021/06/07 10:45:39;;;;;;;0.90;0.90;;;21.60;99.90;;;;;;5093757;28;20032;-78
2021/06/07 10:48:10;;;;;;;0.90;0.90;;;21.70;99.90;;;;;;5093337;28;20056;-78
2021/06/07 10:50:44;;;;;;;0.70;0.70;;;21.60;99.90;;;;;;5093628;28;20379;-78
2021/06/07 10:53:29;;;;;;;0.80;0.80;;;21.40;99.90;;;;;;5093536;28;20081;-77
2021/06/07 10:56:08;;;;;;;1.52;1.42;;;21.30;99.90;;;;;;5093110;28;20077;-79
2021/06/07 10:58:34;;;;;;;0.70;0.70;;;21.20;99.90;;;;;;5093059;28;20028;-78
2021/06/07 11:01:02;;;;;;;0.93;0.93;;;21.20;99.90;;;;;;5092944;28;20024;-80
2021/06/07 11:03:33;;;;;;;0.88;0.88;;;21.30;99.90;;;;;;5093059;28;20622;-82
2021/06/07 11:06:03;;;;;;;4.13;2.35;;;21.30;99.90;;;;;;5092900;28;20016;-79
2021/06/07 11:08:37;;;;;;;1.20;1.17;;;21.50;99.90;;;;;;5092807;28;20429;-79
2021/06/07 11:11:12;;;;;;;0.70;0.70;;;21.70;99.90;;;;;;5093101;28;20051;-81
2021/06/07 11:14:01;;;;;;;1.13;1.02;;;22.10;99.90;;;;;;5093042;28;20040;-79
2021/06/07 11:16:39;;;;;;;1.15;0.98;;;22.30;99.90;;;;;;5092057;28;20027;-79
2021/06/07 11:19:08;;;;;;;1.05;1.00;;;22.70;99.90;;;;;;5101709;28;20061;-79
2021/06/07 11:21:55;;;;;;;1.27;1.17;;;22.90;99.90;;;;;;5112727;28;20047;-76
2021/06/07 11:24:37;;;;;;;0.60;0.60;;;23.00;99.90;;;;;;5073402;28;20052;-77
2021/06/07 11:27:05;;;;;;;0.73;0.73;;;23.30;99.90;;;;;;5072588;28;20027;-77
2021/06/07 11:29:32;;;;;;;1.02;0.98;;;23.40;99.90;;;;;;5074551;28;20024;-75
2021/06/07 11:32:07;;;;;;;0.63;0.63;;;23.60;99.90;;;;;;5101523;28;20084;-82
2021/06/07 11:34:56;;;;;;;3.47;0.90;;;23.70;99.90;;;;;;5098254;28;20530;-79
2021/06/07 11:37:35;;;;;;;1.48;1.40;;;23.70;99.90;;;;;;5100888;28;20031;-77
2021/06/07 11:40:04;;;;;;;0.88;0.88;;;23.80;99.90;;;;;;5107063;28;20024;-76
2021/06/07 11:42:30;;;;;;;0.85;0.85;;;23.60;99.90;;;;;;5112858;28;20020;-83
2021/06/07 11:45:00;;;;;;;1.17;1.08;;;23.20;99.90;;;;;;5113125;28;20030;-79
2021/06/07 11:47:41;;;;;;;0.60;0.60;;;22.90;99.90;;;;;;5112934;28;20020;-78
2021/06/07 11:50:33;;;;;;;1.20;1.10;;;22.60;99.90;;;;;;5113061;28;20020;-76
2021/06/07 11:53:30;;;;;;;1.30;0.95;;;22.60;99.90;;;;;;5112584;28;20034;-79
2021/06/07 11:55:56;;;;;;;1.08;1.08;;;22.50;99.90;;;;;;5103254;28;20035;-78
2021/06/07 11:58:25;;;;;;;1.05;1.02;;;22.30;99.90;;;;;;5095351;28;20012;-78
2021/06/07 12:01:01;;;;;;;0.70;0.70;;;22.30;99.90;;;;;;5086571;28;20024;-79
2021/06/07 12:03:29;;;;;;;1.23;1.13;;;22.30;99.90;;;;;;5091498;28;20016;-83
2021/06/07 12:05:56;;;;;;;0.75;0.75;;;22.60;99.90;;;;;;5091959;28;20039;-79
2021/06/07 12:08:23;;;;;;;0.85;0.85;;;22.80;99.90;;;;;;5092130;28;20484;-80
2021/06/07 12:10:55;;;;;;;1.55;1.45;;;22.90;99.90;;;;;;5091780;28;20044;-80
2021/06/07 12:13:23;;;;;;;2.92;1.58;;;22.90;99.90;;;;;;5080881;28;20370;-80
2021/06/07 12:16:01;;;;;;;0.70;0.70;;;23.20;99.90;;;;;;5074155;28;20024;-79
2021/06/07 12:18:43;;;;;;;1.05;1.00;;;23.30;99.90;;;;;;5091499;28;20035;-79
2021/06/07 12:21:17;;;;;;;1.27;1.17;;;23.30;99.90;;;;;;5091511;28;20024;-80
2021/06/07 12:24:02;;;;;;;0.70;0.70;;;23.40;99.90;;;;;;5091228;28;20032;-81
2021/06/07 12:29:34;;;;;;;0.57;0.57;;;23.70;99.90;;;;;;5072249;28;20395;-79
2021/06/07 12:32:14;;;;;;;0.90;0.90;;;23.50;99.90;;;;;;5070995;28;20032;-77
2021/06/07 12:35:15;;;;;;;0.68;0.68;;;23.80;99.90;;;;;;5071470;28;20395;-85
2021/06/07 12:37:51;;;;;;;0.95;0.95;;;24.20;99.90;;;;;;5071106;28;20119;-82
2021/06/07 12:40:25;;;;;;;1.00;0.93;;;24.70;99.90;;;;;;5071004;28;20021;-80
2021/06/07 12:42:54;;;;;;;0.82;0.82;;;24.70;99.90;;;;;;5070484;28;20016;-80
2021/06/07 12:45:35;;;;;;;0.80;0.80;;;24.80;99.90;;;;;;5070960;28;20048;-79
2021/06/07 12:48:17;;;;;;;0.65;0.65;;;25.40;99.90;;;;;;5071015;28;20073;-74
2021/06/07 12:50:50;;;;;;;0.90;0.90;;;25.40;99.90;;;;;;5071061;28;20017;-80
2021/06/07 12:53:17;;;;;;;1.20;0.95;;;25.40;99.90;;;;;;5081138;28;20032;-75
2021/06/07 12:55:45;;;;;;;1.17;1.08;;;25.40;99.90;;;;;;5075841;28;20027;-78
2021/06/07 12:58:16;;;;;;;1.65;0.80;;;25.60;99.90;;;;;;5071042;28;20505;-78
2021/06/07 13:00:57;;;;;;;1.73;0.80;;;25.90;99.90;;;;;;5071801;28;20380;-76
2021/06/07 13:03:30;;;;;;;1.15;1.02;;;26.30;99.90;;;;;;5070940;28;20016;-76